createdAt,value
2017-12-10T00:01:00.576Z,3.13
2017-12-10T00:03:28.759Z,2.93
2017-12-10T00:05:59.446Z,2.70
2017-12-10T00:11:25.490Z,2.20
2017-12-10T00:13:57.349Z,2.37
2017-12-10T00:16:25.412Z,2.37
2017-12-10T00:21:30.524Z,2.53
2017-12-10T00:23:58.517Z,2.40
2017-12-10T00:26:27.294Z,2.40
2017-12-10T00:28:56.025Z,2.50
2017-12-10T00:31:24.543Z,2.67
2017-12-10T00:33:52.603Z,2.90
2017-12-10T00:36:20.699Z,1.90
2017-12-10T00:38:48.664Z,2.23
2017-12-10T00:41:16.727Z,2.13
2017-12-10T00:43:44.613Z,2.50
2017-12-10T00:46:12.629Z,2.43
2017-12-10T00:48:40.793Z,2.10
2017-12-10T00:51:08.723Z,2.00
2017-12-10T00:53:37.979Z,2.13
2017-12-10T00:56:05.993Z,2.10
2017-12-10T00:58:33.993Z,1.80
2017-12-10T01:01:01.929Z,2.40
2017-12-10T01:03:29.928Z,2.03
2017-12-10T01:05:57.961Z,2.40
2017-12-10T01:08:25.854Z,2.07
2017-12-10T01:10:54.686Z,2.20
2017-12-10T01:13:22.723Z,2.93
2017-12-10T01:18:45.212Z,2.20
2017-12-10T01:21:13.246Z,2.10
2017-12-10T01:23:41.205Z,1.77
2017-12-10T01:26:09.120Z,2.50
2017-12-10T01:28:37.060Z,1.73
2017-12-10T01:31:05.102Z,1.80
2017-12-10T01:33:33.150Z,2.00
2017-12-10T01:36:01.164Z,1.70
2017-12-10T01:38:29.208Z,2.40
2017-12-10T01:46:43.052Z,1.97
2017-12-10T01:49:10.970Z,1.83
2017-12-10T01:51:38.905Z,1.80
2017-12-10T01:54:07.023Z,1.80
2017-12-10T01:56:34.905Z,1.77
2017-12-10T01:59:02.975Z,1.70
2017-12-10T02:01:30.925Z,1.50
2017-12-10T02:03:59.065Z,1.90
2017-12-10T02:06:26.954Z,1.80
2017-12-10T02:08:55.647Z,1.50
2017-12-10T02:11:23.642Z,1.70
2017-12-10T02:13:51.647Z,1.50
2017-12-10T02:16:19.637Z,1.90
2017-12-10T02:18:47.642Z,1.90
2017-12-10T02:21:15.703Z,1.63
2017-12-10T02:23:43.675Z,1.40
2017-12-10T02:26:11.766Z,2.10
2017-12-10T02:28:39.728Z,1.10
2017-12-10T02:31:20.157Z,1.90
2017-12-10T02:33:48.064Z,1.40
2017-12-10T02:36:16.057Z,1.83
2017-12-10T02:38:44.093Z,1.40
2017-12-10T02:41:12.056Z,1.30
2017-12-10T02:43:40.573Z,1.57
2017-12-10T02:46:09.432Z,1.40
2017-12-10T02:48:37.492Z,1.60
2017-12-10T02:51:05.438Z,1.60
2017-12-10T02:53:35.107Z,1.30
2017-12-10T02:56:07.238Z,1.03
2017-12-10T03:17:02.683Z,1.80
2017-12-10T03:19:30.823Z,1.90
2017-12-10T03:21:58.898Z,1.13
2017-12-10T03:24:26.939Z,1.73
2017-12-10T03:26:54.867Z,1.60
2017-12-10T03:29:25.869Z,2.30
2017-12-10T03:31:53.845Z,1.37
2017-12-10T03:34:30.215Z,1.03
2017-12-10T03:39:51.433Z,1.30
2017-12-10T03:42:19.847Z,1.77
2017-12-10T03:44:54.136Z,1.43
2017-12-10T03:47:22.058Z,1.70
2017-12-10T03:49:50.235Z,1.30
2017-12-10T03:52:31.639Z,1.30
2017-12-10T03:54:59.728Z,1.80
2017-12-10T03:57:27.968Z,1.80
2017-12-10T04:42:13.076Z,1.50
2017-12-10T04:44:44.291Z,1.40
2017-12-10T05:20:40.488Z,1.67
2017-12-10T05:23:08.632Z,2.00
2017-12-10T05:28:56.203Z,1.80
2017-12-10T05:31:24.294Z,1.73
2017-12-10T05:33:52.427Z,2.07
2017-12-10T05:36:20.426Z,2.00
2017-12-10T05:38:48.536Z,1.87
2017-12-10T05:53:37.941Z,1.40
2017-12-10T06:08:07.632Z,2.10
2017-12-10T06:10:39.281Z,1.67
2017-12-10T06:16:39.542Z,1.93
2017-12-10T06:19:07.793Z,1.40
2017-12-10T06:21:35.931Z,1.33
2017-12-10T06:24:03.997Z,1.33
2017-12-10T07:05:49.898Z,1.27
2017-12-10T07:08:18.000Z,1.50
2017-12-10T09:09:23.508Z,2.30
2017-12-10T09:11:51.749Z,1.87
2017-12-10T09:14:31.528Z,2.10
2017-12-10T09:47:30.879Z,1.73
2017-12-10T09:49:59.196Z,1.20
2017-12-10T09:52:29.133Z,1.30
2017-12-10T09:54:59.148Z,1.37
2017-12-10T09:57:28.835Z,1.67
2017-12-10T10:23:59.503Z,1.50
2017-12-10T10:35:36.541Z,1.50
2017-12-10T10:40:42.113Z,1.60
2017-12-10T10:43:10.848Z,1.90
2017-12-10T10:45:54.145Z,1.17
2017-12-10T10:48:22.012Z,1.57
2017-12-10T10:50:49.786Z,1.70
2017-12-10T10:53:23.574Z,1.40
2017-12-10T10:55:52.125Z,2.20
2017-12-10T10:58:19.912Z,1.30
2017-12-10T11:00:48.543Z,1.50
2017-12-10T11:03:16.440Z,1.33
2017-12-10T11:05:44.391Z,1.30
2017-12-10T11:08:13.867Z,1.10
2017-12-10T11:10:41.785Z,1.70
2017-12-10T11:13:10.469Z,1.30
2017-12-10T11:21:51.322Z,1.50
2017-12-10T11:24:19.286Z,1.20
2017-12-10T11:26:47.144Z,1.23
2017-12-10T11:29:15.077Z,1.20
2017-12-10T11:31:42.889Z,1.10
2017-12-10T11:34:10.856Z,0.97
2017-12-10T11:36:38.664Z,0.90
2017-12-10T11:39:06.584Z,1.00
2017-12-10T11:41:34.502Z,1.20
2017-12-10T11:44:02.469Z,1.03
2017-12-10T11:46:30.331Z,1.03
2017-12-10T11:48:58.247Z,1.03
2017-12-10T11:51:26.318Z,1.03
2017-12-10T11:53:54.236Z,1.07
2017-12-10T11:56:22.053Z,0.83
2017-12-10T11:58:49.981Z,0.90
2017-12-10T12:01:18.592Z,1.03
2017-12-10T12:03:46.454Z,1.10
2017-12-10T12:06:15.034Z,1.13
2017-12-10T12:08:42.994Z,0.83
2017-12-10T12:11:11.159Z,0.83
2017-12-10T12:13:39.794Z,1.00
2017-12-10T12:16:07.601Z,0.80
2017-12-10T12:18:35.457Z,1.07
2017-12-10T12:21:03.620Z,0.70
2017-12-10T12:23:31.686Z,1.10
2017-12-10T12:25:59.508Z,0.90
2017-12-10T12:28:31.156Z,0.70
2017-12-10T12:30:59.053Z,1.20
2017-12-10T12:33:27.037Z,1.03
2017-12-10T12:35:54.924Z,1.03
2017-12-10T12:38:24.187Z,0.77
2017-12-10T12:40:52.113Z,0.80
2017-12-10T12:43:20.051Z,0.93
2017-12-10T12:45:48.173Z,0.90
2017-12-10T13:24:51.454Z,0.90
2017-12-10T13:27:19.350Z,0.80
2017-12-10T13:29:47.170Z,0.80
2017-12-10T13:32:15.033Z,0.83
2017-12-10T13:34:42.927Z,1.40
2017-12-10T13:37:11.527Z,0.90
2017-12-10T13:39:39.403Z,1.47
2017-12-10T13:42:07.237Z,0.97
2017-12-10T13:44:36.696Z,9.33
2017-12-10T13:47:04.596Z,1.27
2017-12-10T13:49:33.223Z,0.90
2017-12-10T13:52:01.065Z,1.00
2017-12-10T13:54:29.721Z,1.00
2017-12-10T13:56:57.580Z,1.70
2017-12-10T13:59:25.499Z,1.00
2017-12-10T14:01:53.362Z,0.70
2017-12-10T14:04:21.225Z,1.10
2017-12-10T14:06:50.473Z,0.90
2017-12-10T14:09:18.355Z,0.70
2017-12-10T14:11:46.985Z,0.80
2017-12-10T14:14:14.783Z,0.90
2017-12-10T14:16:42.604Z,3.97
2017-12-10T14:19:10.456Z,6.43
2017-12-10T14:21:39.094Z,6.23
2017-12-10T14:24:06.925Z,6.00
2017-12-10T14:26:34.793Z,6.30
2017-12-10T14:31:55.827Z,6.43
2017-12-10T14:34:23.678Z,7.00
2017-12-10T14:36:51.430Z,6.80
2017-12-10T14:39:19.245Z,5.90
2017-12-10T14:44:19.022Z,6.90
2017-12-10T14:46:47.573Z,7.47
2017-12-10T14:49:15.428Z,6.77
2017-12-10T14:51:43.348Z,6.30
2017-12-10T15:00:16.672Z,5.63
2017-12-10T15:02:44.532Z,7.40
2017-12-10T18:53:00.624Z,11.20
2017-12-10T19:01:20.892Z,13.20
2017-12-10T19:03:49.623Z,13.20
2017-12-10T19:06:19.187Z,12.07
2017-12-10T19:17:57.508Z,12.27
2017-12-10T19:20:26.387Z,12.90
2017-12-10T19:22:55.290Z,12.13
2017-12-10T19:25:26.162Z,13.03
2017-12-10T19:28:04.115Z,13.50
2017-12-10T19:45:45.715Z,13.53
2017-12-10T20:27:46.149Z,11.40
2017-12-10T20:48:27.519Z,14.07
2017-12-10T20:50:57.160Z,14.20
2017-12-10T20:59:30.412Z,15.27
2017-12-10T21:01:59.074Z,14.73
2017-12-10T21:04:27.107Z,14.70
2017-12-10T21:06:55.231Z,15.50
2017-12-10T21:09:23.897Z,15.97
2017-12-10T21:11:51.884Z,15.70
2017-12-10T21:14:19.807Z,15.23
2017-12-10T21:16:47.716Z,14.27
2017-12-10T21:28:45.553Z,14.60
2017-12-10T21:31:13.638Z,14.00
2017-12-10T21:33:50.940Z,14.90
2017-12-10T22:21:53.084Z,15.57
2017-12-10T22:24:20.983Z,17.03
2017-12-10T22:29:47.685Z,14.60
2017-12-10T22:32:15.763Z,14.83
2017-12-10T22:34:43.754Z,15.07
2017-12-10T22:37:11.764Z,15.53
2017-12-10T22:42:34.355Z,16.27
2017-12-10T22:45:02.292Z,15.40
2017-12-10T22:47:30.222Z,32.80
2017-12-10T22:49:58.040Z,16.20
2017-12-10T22:52:26.726Z,16.57
2017-12-10T22:54:54.678Z,14.37
2017-12-10T22:57:23.277Z,15.57
2017-12-10T22:59:51.211Z,14.93
2017-12-10T23:02:19.049Z,15.50
2017-12-10T23:10:33.754Z,15.47
2017-12-10T23:13:01.723Z,16.13
2017-12-10T23:15:29.625Z,14.63
2017-12-10T23:17:57.608Z,14.57
2017-12-10T23:20:27.516Z,15.23
2017-12-10T23:22:55.443Z,13.70
2017-12-10T23:25:23.322Z,13.20
2017-12-10T23:27:51.119Z,14.53
2017-12-10T23:30:20.027Z,13.00
2017-12-10T23:32:54.767Z,14.60
2017-12-10T23:35:22.591Z,12.87
2017-12-10T23:37:50.485Z,12.57
2017-12-10T23:40:18.364Z,13.63
2017-12-10T23:42:46.253Z,12.60
2017-12-10T23:45:18.193Z,13.77
2017-12-10T23:47:46.182Z,13.80
2017-12-10T23:50:14.071Z,12.23
2017-12-10T23:52:41.958Z,14.03
2017-12-10T23:58:03.374Z,12.33
